createdAt,value
2022-11-11T00:01:12.938Z,64.07
2022-11-11T00:03:40.460Z,63.96
2022-11-11T00:06:10.969Z,64.15
2022-11-11T00:08:38.182Z,64.29
2022-11-11T00:11:10.968Z,64.29
2022-11-11T00:13:39.083Z,64.23
2022-11-11T00:16:12.105Z,64.54
2022-11-11T00:18:58.751Z,64.53
2022-11-11T00:21:44.670Z,64.64
2022-11-11T00:24:49.353Z,64.55
2022-11-11T00:27:17.695Z,64.42
2022-11-11T00:29:48.477Z,64.68
2022-11-11T00:32:25.132Z,64.93
2022-11-11T00:35:12.528Z,64.85
2022-11-11T00:37:39.821Z,64.93
2022-11-11T00:40:07.927Z,64.75
2022-11-11T00:42:35.343Z,64.97
2022-11-11T00:45:02.714Z,65.16
2022-11-11T00:47:48.376Z,65.16
2022-11-11T00:50:39.380Z,65.07
2022-11-11T00:53:11.634Z,65.10
2022-11-11T00:55:39.039Z,65.21
2022-11-11T00:58:06.205Z,65.20
2022-11-11T01:00:33.480Z,65.19
2022-11-11T01:03:00.400Z,65.37
2022-11-11T01:05:27.755Z,65.48
2022-11-11T01:07:54.778Z,65.44
2022-11-11T01:10:41.350Z,65.31
2022-11-11T01:13:17.064Z,65.68
2022-11-11T01:15:47.336Z,65.63
2022-11-11T01:18:16.461Z,65.50
2022-11-11T01:20:44.098Z,65.51
2022-11-11T01:23:12.594Z,65.63
2022-11-11T01:25:42.004Z,65.76
2022-11-11T01:28:09.631Z,65.79
2022-11-11T01:30:37.329Z,65.81
2022-11-11T01:33:05.103Z,65.82
2022-11-11T01:35:32.661Z,65.80
2022-11-11T01:38:00.074Z,65.55
2022-11-11T01:40:27.308Z,65.84
2022-11-11T01:43:17.559Z,66.18
2022-11-11T01:46:01.796Z,65.85
2022-11-11T01:48:54.418Z,65.95
2022-11-11T01:51:45.840Z,66.12
2022-11-11T01:54:30.742Z,66.04
2022-11-11T01:57:06.804Z,65.92
2022-11-11T01:59:36.309Z,65.97
2022-11-11T02:02:10.252Z,65.91
2022-11-11T02:04:56.459Z,66.19
2022-11-11T02:07:26.493Z,66.10
2022-11-11T02:09:54.452Z,66.03
2022-11-11T02:12:40.653Z,66.13
2022-11-11T02:15:08.024Z,66.24
2022-11-11T02:17:35.201Z,66.24
2022-11-11T02:20:04.196Z,66.23
2022-11-11T02:22:51.943Z,66.32
2022-11-11T02:25:23.270Z,66.27
2022-11-11T02:27:53.548Z,66.43
2022-11-11T02:30:21.801Z,66.34
2022-11-11T02:32:51.952Z,66.35
2022-11-11T02:35:30.033Z,66.40
2022-11-11T02:37:56.953Z,66.52
2022-11-11T02:40:38.845Z,66.51
2022-11-11T02:43:06.523Z,66.63
2022-11-11T02:45:33.574Z,66.59
2022-11-11T02:48:00.698Z,66.50
2022-11-11T02:50:27.850Z,66.49
2022-11-11T02:52:54.827Z,66.55
2022-11-11T02:55:21.957Z,66.68
2022-11-11T02:57:48.945Z,66.62
2022-11-11T03:00:16.912Z,66.64
2022-11-11T03:02:44.002Z,66.62
2022-11-11T03:05:10.904Z,66.67
2022-11-11T03:07:38.091Z,66.68
2022-11-11T03:10:05.320Z,66.56
2022-11-11T03:12:32.151Z,66.67
2022-11-11T03:14:59.263Z,66.75
2022-11-11T03:17:42.458Z,66.64
2022-11-11T03:20:33.445Z,66.67
2022-11-11T03:23:09.061Z,66.92
2022-11-11T03:25:58.076Z,66.75
2022-11-11T03:28:26.144Z,66.86
2022-11-11T03:30:54.241Z,66.98
2022-11-11T03:33:21.416Z,66.79
2022-11-11T03:35:48.428Z,66.69
2022-11-11T03:38:24.952Z,66.98
2022-11-11T03:40:57.447Z,66.88
2022-11-11T03:43:27.165Z,66.91
2022-11-11T03:45:56.388Z,66.94
2022-11-11T03:48:23.951Z,66.93
2022-11-11T03:50:51.330Z,66.89
2022-11-11T03:53:23.474Z,67.02
2022-11-11T03:55:51.518Z,67.00
2022-11-11T03:58:19.198Z,66.92
2022-11-11T04:00:46.019Z,66.79
2022-11-11T04:03:37.127Z,67.04
2022-11-11T04:06:27.701Z,67.02
2022-11-11T04:09:13.076Z,66.97
2022-11-11T04:11:46.371Z,67.01
2022-11-11T04:14:32.897Z,67.12
2022-11-11T04:16:59.804Z,66.98
2022-11-11T04:19:45.426Z,67.12
2022-11-11T04:22:12.257Z,67.09
2022-11-11T04:24:57.695Z,66.93
2022-11-11T04:27:24.481Z,67.08
2022-11-11T04:29:52.442Z,67.09
2022-11-11T04:32:36.301Z,67.05
2022-11-11T04:35:07.802Z,67.14
2022-11-11T04:38:12.740Z,67.14
2022-11-11T04:40:58.082Z,67.13
2022-11-11T04:43:25.276Z,66.96
2022-11-11T04:45:52.243Z,67.17
2022-11-11T04:48:21.185Z,66.98
2022-11-11T04:50:48.068Z,67.09
2022-11-11T04:53:15.666Z,67.16
2022-11-11T04:56:02.716Z,67.02
2022-11-11T04:58:35.287Z,67.12
2022-11-11T05:01:02.992Z,67.01
2022-11-11T05:03:29.831Z,67.14
2022-11-11T05:06:18.083Z,67.11
2022-11-11T05:09:01.720Z,67.01
2022-11-11T05:11:33.626Z,67.21
2022-11-11T05:14:24.378Z,67.07
2022-11-11T05:17:12.459Z,67.22
2022-11-11T05:19:58.292Z,67.13
2022-11-11T05:22:28.128Z,67.15
2022-11-11T05:25:13.346Z,67.36
2022-11-11T05:27:40.582Z,67.16
2022-11-11T05:30:09.833Z,67.09
2022-11-11T05:32:37.088Z,67.20
2022-11-11T05:35:04.490Z,67.03
2022-11-11T05:37:31.895Z,67.21
2022-11-11T05:39:58.726Z,66.97
2022-11-11T05:42:25.707Z,67.20
2022-11-11T05:44:52.790Z,67.08
2022-11-11T05:47:19.901Z,67.12
2022-11-11T05:49:46.776Z,67.20
2022-11-11T05:52:16.603Z,67.23
2022-11-11T05:54:43.894Z,67.07
2022-11-11T05:57:10.956Z,67.34
2022-11-11T05:59:38.192Z,67.04
2022-11-11T06:02:05.285Z,67.08
2022-11-11T06:04:32.376Z,66.86
2022-11-11T06:06:59.347Z,66.93
2022-11-11T06:09:26.270Z,67.14
2022-11-11T06:11:53.167Z,67.13
2022-11-11T06:14:20.043Z,67.13
2022-11-11T06:16:46.975Z,67.20
2022-11-11T06:19:13.904Z,67.09
2022-11-11T06:21:59.509Z,67.17
2022-11-11T06:24:27.179Z,67.15
2022-11-11T06:26:56.060Z,67.20
2022-11-11T06:29:23.153Z,67.35
2022-11-11T06:31:50.050Z,67.47
2022-11-11T06:34:17.205Z,67.55
2022-11-11T06:36:44.321Z,67.12
2022-11-11T06:39:11.210Z,67.22
2022-11-11T06:41:38.108Z,67.06
2022-11-11T06:44:05.120Z,67.08
2022-11-11T06:46:32.033Z,66.90
2022-11-11T06:48:58.980Z,66.77
2022-11-11T06:51:25.854Z,66.88
2022-11-11T06:53:52.819Z,67.03
2022-11-11T06:56:19.650Z,66.92
2022-11-11T06:58:46.599Z,66.82
2022-11-11T07:01:14.165Z,66.95
2022-11-11T07:03:41.419Z,67.01
2022-11-11T07:06:08.386Z,66.90
2022-11-11T07:08:35.296Z,66.80
2022-11-11T07:11:11.156Z,66.65
2022-11-11T07:13:39.712Z,66.80
2022-11-11T07:16:06.958Z,66.78
2022-11-11T07:18:33.877Z,66.80
2022-11-11T07:21:00.761Z,66.90
2022-11-11T07:23:27.561Z,66.59
2022-11-11T07:25:54.480Z,66.92
2022-11-11T07:28:21.506Z,66.57
2022-11-11T07:30:48.763Z,66.71
2022-11-11T07:33:19.038Z,66.56
2022-11-11T07:35:48.992Z,66.66
2022-11-11T07:38:15.887Z,66.53
2022-11-11T07:40:42.783Z,66.50
2022-11-11T07:43:09.636Z,66.69
2022-11-11T07:45:36.494Z,66.78
2022-11-11T07:48:03.660Z,66.76
2022-11-11T07:50:30.538Z,66.72
2022-11-11T07:52:57.447Z,66.99
2022-11-11T07:55:24.365Z,66.79
2022-11-11T07:57:54.252Z,66.79
2022-11-11T08:00:21.335Z,67.04
2022-11-11T08:02:49.283Z,67.01
2022-11-11T08:05:17.361Z,66.92
2022-11-11T08:07:44.339Z,66.99
2022-11-11T08:10:12.642Z,66.94
2022-11-11T08:12:58.090Z,67.14
2022-11-11T08:15:25.199Z,67.09
2022-11-11T08:17:52.180Z,67.05
2022-11-11T08:20:19.031Z,67.01
2022-11-11T08:23:14.776Z,67.07
2022-11-11T08:25:33.276Z,67.13
2022-11-11T08:28:01.965Z,67.24
2022-11-11T08:30:29.158Z,67.11
2022-11-11T08:33:31.817Z,67.10
2022-11-11T08:35:54.712Z,67.19
2022-11-11T08:38:23.783Z,67.27
2022-11-11T08:40:52.226Z,67.32
2022-11-11T08:43:20.268Z,67.46
2022-11-11T08:45:47.459Z,67.15
2022-11-11T08:48:14.857Z,67.29
2022-11-11T08:50:42.204Z,67.25
2022-11-11T08:53:09.740Z,67.26
2022-11-11T08:55:37.788Z,67.24
2022-11-11T08:58:07.263Z,67.33
2022-11-11T09:00:34.921Z,67.26
2022-11-11T09:03:04.244Z,67.23
2022-11-11T09:05:32.176Z,67.31
2022-11-11T09:08:03.508Z,67.23
2022-11-11T09:10:30.576Z,67.10
2022-11-11T09:12:59.120Z,67.08
2022-11-11T09:15:27.277Z,67.37
2022-11-11T09:17:54.980Z,67.28
2022-11-11T09:20:25.595Z,67.33
2022-11-11T09:22:56.356Z,67.36
2022-11-11T09:25:24.042Z,67.47
2022-11-11T09:27:56.048Z,67.40
2022-11-11T09:30:23.584Z,67.41
2022-11-11T09:32:51.274Z,67.40
2022-11-11T09:35:18.827Z,67.31
2022-11-11T09:38:00.113Z,67.51
2022-11-11T09:40:35.951Z,67.52
2022-11-11T09:43:11.230Z,67.37
2022-11-11T09:45:47.914Z,67.40
2022-11-11T09:48:55.188Z,67.31
2022-11-11T09:51:43.776Z,67.44
2022-11-11T09:54:22.995Z,67.26
2022-11-11T09:56:50.588Z,67.42
2022-11-11T09:59:24.774Z,67.38
2022-11-11T10:01:59.558Z,67.31
2022-11-11T10:04:39.190Z,67.36
2022-11-11T10:07:23.804Z,67.29
2022-11-11T10:10:19.925Z,67.24
2022-11-11T10:12:53.644Z,67.20
2022-11-11T10:15:21.614Z,67.19
2022-11-11T10:17:55.176Z,67.22
2022-11-11T10:20:34.809Z,67.18
2022-11-11T10:23:09.190Z,67.38
2022-11-11T10:25:38.436Z,67.13
2022-11-11T10:28:06.310Z,67.33
2022-11-11T10:30:33.830Z,67.22
2022-11-11T10:33:17.444Z,67.16
2022-11-11T10:35:45.710Z,67.20
2022-11-11T10:38:33.636Z,67.10
2022-11-11T10:41:12.022Z,67.24
2022-11-11T10:43:39.810Z,67.24
2022-11-11T10:46:17.828Z,67.23
2022-11-11T10:48:44.989Z,67.26
2022-11-11T10:51:13.558Z,67.05
2022-11-11T10:53:47.003Z,67.17
2022-11-11T10:56:28.976Z,67.04
2022-11-11T10:59:02.016Z,67.05
2022-11-11T11:01:36.620Z,67.00
2022-11-11T11:04:17.936Z,67.04
2022-11-11T11:06:48.565Z,67.00
2022-11-11T11:09:32.384Z,67.02
2022-11-11T11:12:10.267Z,67.25
2022-11-11T11:14:41.581Z,67.10
2022-11-11T11:17:15.504Z,67.12
2022-11-11T11:19:42.641Z,66.94
2022-11-11T11:22:09.895Z,66.92
2022-11-11T11:24:43.429Z,66.90
2022-11-11T11:27:11.154Z,66.79
2022-11-11T11:29:46.198Z,66.96
2022-11-11T11:32:19.417Z,67.06
2022-11-11T11:34:55.134Z,66.91
2022-11-11T11:37:25.556Z,66.78
2022-11-11T11:40:04.572Z,66.85
2022-11-11T11:42:36.416Z,67.03
2022-11-11T11:45:26.269Z,66.94
2022-11-11T11:48:33.940Z,66.70
2022-11-11T11:51:14.564Z,66.85
2022-11-11T11:53:51.459Z,66.88
2022-11-11T11:56:26.455Z,67.02
2022-11-11T11:59:23.748Z,66.83
2022-11-11T12:02:12.066Z,66.86
2022-11-11T12:05:12.200Z,66.97
2022-11-11T12:08:16.284Z,67.07
2022-11-11T12:11:41.911Z,67.18
2022-11-11T12:14:29.993Z,67.01
2022-11-11T12:17:08.886Z,67.01
2022-11-11T12:19:58.133Z,67.16
2022-11-11T12:23:06.462Z,67.02
2022-11-11T12:25:42.492Z,66.91
2022-11-11T12:29:06.071Z,67.22
2022-11-11T12:32:06.522Z,67.01
2022-11-11T12:34:36.311Z,67.12
2022-11-11T12:37:22.163Z,67.03
2022-11-11T12:39:59.196Z,67.29
2022-11-11T12:42:41.756Z,67.17
2022-11-11T12:45:18.840Z,67.16
2022-11-11T12:48:09.146Z,67.24
2022-11-11T12:50:46.867Z,67.31
2022-11-11T12:53:19.604Z,67.29
2022-11-11T12:56:01.726Z,67.35
2022-11-11T12:58:39.413Z,67.23
2022-11-11T13:01:38.855Z,67.42
2022-11-11T13:04:21.252Z,67.32
2022-11-11T13:06:57.168Z,67.11
2022-11-11T13:09:39.468Z,67.50
2022-11-11T13:12:36.178Z,67.38
2022-11-11T13:15:07.337Z,67.46
2022-11-11T13:17:34.419Z,67.28
2022-11-11T13:20:12.328Z,67.38
2022-11-11T13:22:39.349Z,67.40
2022-11-11T13:25:09.821Z,67.29
2022-11-11T13:27:37.103Z,67.44
2022-11-11T13:30:25.702Z,67.36
2022-11-11T13:33:10.894Z,67.58
2022-11-11T13:35:49.766Z,67.48
2022-11-11T13:38:37.771Z,67.37
2022-11-11T13:41:07.562Z,67.47
2022-11-11T13:43:45.804Z,67.58
2022-11-11T13:46:42.416Z,67.29
2022-11-11T13:49:35.523Z,67.64
2022-11-11T13:52:22.677Z,67.59
2022-11-11T13:55:01.387Z,67.60
2022-11-11T13:57:32.532Z,67.76
2022-11-11T14:00:01.797Z,67.55
2022-11-11T14:02:34.162Z,67.49
2022-11-11T14:05:06.425Z,67.58
2022-11-11T14:07:47.625Z,67.61
2022-11-11T14:10:17.503Z,67.41
2022-11-11T14:12:45.273Z,67.46
2022-11-11T14:15:41.668Z,67.45
2022-11-11T14:18:31.008Z,67.50
2022-11-11T14:20:58.304Z,67.59
2022-11-11T14:23:37.451Z,67.69
2022-11-11T14:26:07.161Z,67.74
2022-11-11T14:28:42.266Z,67.64
2022-11-11T14:31:16.350Z,67.69
2022-11-11T14:34:21.729Z,67.80
2022-11-11T14:37:00.710Z,67.76
2022-11-11T14:39:52.410Z,67.77
2022-11-11T14:42:45.118Z,67.80
2022-11-11T14:45:25.733Z,67.81
2022-11-11T14:47:53.181Z,67.95
2022-11-11T14:50:33.050Z,67.88
2022-11-11T14:53:02.852Z,67.80
2022-11-11T14:55:30.994Z,67.89
2022-11-11T14:58:18.691Z,68.01
2022-11-11T15:00:48.308Z,68.07
2022-11-11T15:03:18.276Z,67.99
2022-11-11T15:05:51.024Z,67.93
2022-11-11T15:08:48.742Z,67.86
2022-11-11T15:11:24.541Z,67.97
2022-11-11T15:14:16.572Z,67.85
2022-11-11T15:17:02.409Z,68.04
2022-11-11T15:20:08.549Z,67.92
2022-11-11T15:22:52.692Z,68.00
2022-11-11T15:25:49.145Z,67.88
2022-11-11T15:28:25.215Z,68.02
2022-11-11T15:31:13.943Z,68.08
2022-11-11T15:34:11.443Z,68.09
2022-11-11T15:37:06.867Z,68.03
2022-11-11T15:39:56.097Z,68.17
2022-11-11T15:42:34.165Z,68.10
2022-11-11T15:45:04.278Z,68.20
2022-11-11T15:47:36.464Z,68.24
2022-11-11T15:50:04.005Z,68.26
2022-11-11T15:52:37.709Z,68.25
2022-11-11T15:55:22.068Z,68.10
2022-11-11T15:57:49.084Z,68.31
2022-11-11T16:00:25.056Z,68.18
2022-11-11T16:02:55.452Z,68.14
2022-11-11T16:05:33.675Z,68.11
2022-11-11T16:08:09.671Z,68.08
2022-11-11T16:10:38.679Z,68.11
2022-11-11T16:13:14.561Z,68.01
2022-11-11T16:15:46.422Z,68.06
2022-11-11T16:18:19.760Z,68.31
2022-11-11T16:20:53.725Z,68.36
2022-11-11T16:23:22.340Z,68.28
2022-11-11T16:25:53.634Z,68.16
2022-11-11T16:28:21.883Z,68.33
2022-11-11T16:30:48.966Z,68.12
2022-11-11T16:33:28.191Z,68.08
2022-11-11T16:35:55.288Z,68.05
2022-11-11T16:38:32.928Z,68.17
2022-11-11T16:41:00.232Z,68.22
2022-11-11T16:43:34.103Z,68.33
2022-11-11T16:46:07.841Z,68.28
2022-11-11T16:48:42.081Z,68.91
2022-11-11T16:51:33.904Z,69.13
2022-11-11T16:54:10.480Z,69.33
2022-11-11T16:56:42.945Z,69.23
2022-11-11T16:59:16.661Z,68.74
2022-11-11T17:01:45.666Z,68.70
2022-11-11T17:04:13.145Z,68.76
2022-11-11T17:07:00.033Z,68.58
2022-11-11T17:09:45.584Z,68.63
2022-11-11T17:12:13.896Z,68.54
2022-11-11T17:14:40.938Z,68.58
2022-11-11T17:17:10.582Z,68.50
2022-11-11T17:19:37.603Z,68.40
2022-11-11T17:22:06.644Z,68.34
2022-11-11T17:24:33.590Z,68.25
2022-11-11T17:27:00.770Z,68.40
2022-11-11T17:29:27.907Z,68.46
2022-11-11T17:31:58.501Z,68.41
2022-11-11T17:34:25.434Z,68.31
2022-11-11T17:36:53.020Z,68.46
2022-11-11T17:39:20.109Z,68.44
2022-11-11T17:41:47.040Z,68.30
2022-11-11T17:44:14.009Z,68.41
2022-11-11T17:46:40.901Z,68.20
2022-11-11T17:49:08.222Z,68.11
2022-11-11T17:51:35.301Z,68.08
2022-11-11T17:54:02.385Z,68.14
2022-11-11T17:56:29.639Z,68.09
2022-11-11T17:58:56.577Z,68.07
2022-11-11T18:01:23.703Z,68.03
2022-11-11T18:03:54.898Z,67.79
2022-11-11T18:06:22.034Z,67.63
2022-11-11T18:08:49.116Z,67.67
2022-11-11T18:11:16.284Z,67.58
2022-11-11T18:13:43.432Z,67.46
2022-11-11T18:16:20.704Z,67.42
2022-11-11T18:18:49.075Z,67.24
2022-11-11T18:21:15.929Z,67.45
2022-11-11T18:23:43.072Z,67.52
2022-11-11T18:26:10.009Z,67.06
2022-11-11T18:28:39.106Z,67.13
2022-11-11T18:31:11.796Z,66.98
2022-11-11T18:33:45.029Z,66.98
2022-11-11T18:36:15.728Z,67.08
2022-11-11T18:38:43.435Z,66.91
2022-11-11T18:41:14.912Z,66.89
2022-11-11T18:43:52.553Z,66.70
2022-11-11T18:46:23.270Z,66.55
2022-11-11T18:48:57.540Z,66.51
2022-11-11T18:51:25.418Z,66.19
2022-11-11T18:53:52.978Z,66.13
2022-11-11T18:56:22.258Z,66.23
2022-11-11T18:58:53.125Z,65.74
2022-11-11T19:01:26.207Z,65.52
2022-11-11T19:03:56.080Z,65.66
2022-11-11T19:06:23.127Z,65.41
2022-11-11T19:08:55.525Z,65.30
2022-11-11T19:11:22.714Z,65.27
2022-11-11T19:13:49.819Z,65.06
2022-11-11T19:16:19.577Z,64.72
2022-11-11T19:18:47.355Z,64.92
2022-11-11T19:21:17.302Z,64.94
2022-11-11T19:23:46.799Z,64.66
2022-11-11T19:26:14.728Z,64.69
2022-11-11T19:28:43.341Z,64.55
2022-11-11T19:31:15.881Z,64.61
2022-11-11T19:33:44.490Z,64.09
2022-11-11T19:36:19.437Z,63.98
2022-11-11T19:38:48.504Z,63.81
2022-11-11T19:41:20.886Z,63.36
2022-11-11T19:43:50.194Z,63.63
2022-11-11T19:46:20.166Z,63.40
2022-11-11T19:48:49.274Z,63.21
2022-11-11T19:51:20.667Z,63.09
2022-11-11T19:53:49.507Z,63.20
2022-11-11T19:56:21.344Z,62.98
2022-11-11T19:58:49.771Z,63.02
2022-11-11T20:01:20.167Z,62.76
2022-11-11T20:03:48.119Z,62.55
2022-11-11T20:06:31.438Z,62.59
2022-11-11T20:09:01.877Z,62.67
2022-11-11T20:11:30.171Z,62.45
2022-11-11T20:13:58.254Z,62.57
2022-11-11T20:16:25.892Z,62.61
2022-11-11T20:18:57.316Z,62.91
2022-11-11T20:21:25.212Z,62.71
2022-11-11T20:23:52.666Z,62.74
2022-11-11T20:26:20.410Z,62.20
2022-11-11T20:28:48.286Z,62.51
2022-11-11T20:31:18.645Z,62.46
2022-11-11T20:33:49.651Z,62.58
2022-11-11T20:36:18.401Z,62.80
2022-11-11T20:38:45.649Z,62.62
2022-11-11T20:41:14.829Z,62.97
2022-11-11T20:43:42.570Z,63.07
2022-11-11T20:46:12.077Z,62.38
2022-11-11T20:48:44.056Z,62.24
2022-11-11T20:51:17.363Z,62.50
2022-11-11T20:53:44.838Z,62.41
2022-11-11T20:56:22.445Z,62.25
2022-11-11T20:58:53.229Z,62.28
2022-11-11T21:01:26.399Z,62.24
2022-11-11T21:04:00.756Z,62.11
2022-11-11T21:06:32.386Z,62.26
2022-11-11T21:09:00.068Z,62.13
2022-11-11T21:11:27.961Z,61.95
2022-11-11T21:13:56.842Z,61.92
2022-11-11T21:16:29.713Z,61.89
2022-11-11T21:18:58.762Z,61.76
2022-11-11T21:21:29.904Z,61.38
2022-11-11T21:24:02.348Z,61.69
2022-11-11T21:26:31.316Z,61.91
2022-11-11T21:28:58.859Z,61.81
2022-11-11T21:31:29.252Z,61.88
2022-11-11T21:34:08.695Z,61.97
2022-11-11T21:36:38.016Z,61.47
2022-11-11T21:39:06.463Z,61.06
2022-11-11T21:41:37.528Z,61.32
2022-11-11T21:44:07.297Z,61.13
2022-11-11T21:46:36.504Z,61.88
2022-11-11T21:49:05.148Z,62.09
2022-11-11T21:51:34.576Z,61.74
2022-11-11T21:54:07.796Z,61.42
2022-11-11T21:56:37.190Z,61.67
2022-11-11T21:59:06.523Z,61.78
2022-11-11T22:01:40.513Z,61.60
2022-11-11T22:04:11.234Z,61.60
2022-11-11T22:06:38.607Z,61.58
2022-11-11T22:09:06.846Z,61.75
2022-11-11T22:11:36.333Z,61.82
2022-11-11T22:14:04.865Z,61.81
2022-11-11T22:16:35.222Z,61.90
2022-11-11T22:19:07.949Z,61.95
2022-11-11T22:21:37.381Z,62.21
2022-11-11T22:24:07.727Z,61.90
2022-11-11T22:26:40.629Z,62.12
2022-11-11T22:29:11.648Z,62.49
2022-11-11T22:31:39.257Z,62.36
2022-11-11T22:34:11.789Z,62.22
2022-11-11T22:36:39.629Z,62.41
2022-11-11T22:39:08.489Z,62.60
2022-11-11T22:41:41.157Z,62.33
2022-11-11T22:44:08.637Z,62.66
2022-11-11T22:46:36.578Z,62.69
2022-11-11T22:49:07.005Z,62.75
2022-11-11T22:51:34.415Z,62.72
2022-11-11T22:54:06.726Z,62.58
2022-11-11T22:56:35.639Z,62.79
2022-11-11T22:59:06.335Z,63.03
2022-11-11T23:01:34.463Z,62.81
2022-11-11T23:04:03.686Z,62.93
2022-11-11T23:06:33.392Z,62.92
2022-11-11T23:09:00.470Z,62.92
2022-11-11T23:11:30.139Z,63.23
2022-11-11T23:14:03.861Z,63.11
2022-11-11T23:16:31.589Z,62.83
2022-11-11T23:18:59.944Z,63.21
2022-11-11T23:21:28.740Z,63.21
2022-11-11T23:23:56.833Z,63.20
2022-11-11T23:26:26.607Z,63.22
2022-11-11T23:28:53.873Z,63.38
2022-11-11T23:31:26.132Z,63.36
2022-11-11T23:33:54.516Z,63.50
2022-11-11T23:36:24.454Z,63.34
2022-11-11T23:38:52.251Z,63.47
2022-11-11T23:41:20.016Z,63.47
2022-11-11T23:43:47.291Z,63.50
2022-11-11T23:46:14.426Z,63.65
2022-11-11T23:48:42.026Z,63.71
2022-11-11T23:51:09.073Z,63.64
2022-11-11T23:53:37.919Z,63.75
2022-11-11T23:56:05.802Z,63.87
2022-11-11T23:58:32.985Z,63.80
